Currently 81°F in French Valley, California, USA
81°F
81°F / 58°F
calm
0.00"
Monday, July 4, 2022 2:25 PM PDT

French Valley, California Weather Summary
Last 36 Hours

Temperature Winds Hourly Humidity Dewpoint
Time Report Norm Report Norm Max Gusts Precip. Rpt. Norm Rpt. Norm Pressure
1Mon 02:25 PM  80.8°F  88°F  calm  6 mph  none  0.00"  41%  37%  54°F  58°F  29.98"
2Mon 02:04 PM  81.4°F  88°F  calm  5 mph  none  ----  40%  37%  54°F  58°F  29.99"
Mon 02:00 PM  81.0°F  88°F  calm  5 mph  none  0.00"  40%  37%  54°F  58°F  29.99"
Mon 01:00 PM  79.8°F  87°F  calm  4 mph  none  0.00"  38%  39%  51°F  58°F  30.00"
Mon 12:00 PM  76.7°F  84°F  calm  4 mph  none  0.00"  49%  42%  55°F  58°F  30.03"
Mon 11:00 AM  72.1°F  81°F  calm  3 mph  none  0.00"  61%  48%  57°F  59°F  30.04"
Mon 10:00 AM  67.1°F  77°F  calm  2 mph  none  0.00"  77%  57%  59°F  60°F  30.04"
Mon 09:00 AM  62.9°F  72°F  calm  1 mph  none  0.00"  87%  68%  59°F  61°F  30.05"
Mon 08:00 AM  59.2°F  68°F  calm  1 mph  none  0.00"  96%  76%  58°F  60°F  30.04"
Mon 07:00 AM  58.4°F  65°F  calm  1 mph  none  0.00"  98%  82%  58°F  59°F  30.04"
3Mon 06:00 AM  58.0°F  63°F  calm  calm  none  0.00"  98%  83%  57°F  58°F  30.03"
Mon 05:00 AM  58.7°F  63°F  calm  calm  none  0.00"  98%  83%  58°F  58°F  30.02"
Mon 04:00 AM  58.4°F  64°F  calm  1 mph  none  0.00"  98%  82%  58°F  58°F  30.01"
Mon 03:00 AM  58.7°F  65°F  calm  calm  none  0.00"  97%  82%  58°F  59°F  30.01"
Mon 02:00 AM  58.8°F  65°F  calm  calm  none  0.00"  97%  81%  58°F  59°F  30.01"
Mon 01:00 AM  59.5°F  66°F  calm  calm  none  0.00"  96%  79%  58°F  59°F  30.01"
Mon 12:00 AM  60.0°F  67°F  calm  1 mph  none  0.00"  95%  77%  59°F  59°F  30.02"
Sun 11:00 PM  60.6°F  68°F  calm  1 mph  none  0.00"  94%  75%  59°F  60°F  30.01"
Sun 10:00 PM  61.9°F  69°F  calm  2 mph  none  0.00"  90%  73%  59°F  60°F  30.00"
Sun 09:00 PM  64.0°F  71°F  calm  3 mph  none  0.00"  85%  68%  59°F  60°F  29.98"
Sun 08:00 PM  67.0°F  74°F  calm  5 mph  none  0.00"  77%  61%  59°F  60°F  29.96"
Sun 07:00 PM  70.6°F  78°F  calm  6 mph  none  0.00"  61%  52%  56°F  59°F  29.94"
Sun 06:00 PM  74.0°F  82°F  calm  7 mph  none  0.00"  55%  46%  56°F  58°F  29.93"
Sun 05:00 PM  76.0°F  84°F  calm  7 mph  none  0.00"  53%  42%  57°F  58°F  29.93"
Sun 04:00 PM  76.5°F  86°F  calm  7 mph  none  0.00"  56%  39%  59°F  58°F  29.95"
Sun 03:00 PM  77.9°F  88°F  calm  7 mph  none  0.00"  50%  38%  57°F  58°F  29.96"
Sun 02:00 PM  80.3°F  88°F  calm  5 mph  none  0.00"  46%  37%  57°F  58°F  29.98"
Sun 01:00 PM  79.7°F  86°F  calm  4 mph  none  0.00"  43%  39%  54°F  58°F  29.98"
Sun 12:00 PM  77.2°F  84°F  calm  4 mph  none  0.00"  48%  42%  56°F  58°F  30.00"
Sun 11:00 AM  73.7°F  81°F  calm  3 mph  none  0.00"  58%  48%  57°F  59°F  30.02"
Sun 10:00 AM  71.0°F  77°F  calm  2 mph  none  0.00"  65%  57%  58°F  60°F  30.02"
Sun 09:00 AM  66.5°F  72°F  calm  1 mph  none  0.00"  77%  68%  59°F  61°F  30.02"
Sun 08:00 AM  63.0°F  68°F  calm  1 mph  none  0.00"  91%  76%  60°F  60°F  30.03"
Sun 07:00 AM  61.5°F  64°F  calm  1 mph  none  0.00"  94%  82%  60°F  59°F  30.03"
Sun 06:00 AM  61.1°F  63°F  calm  calm  none  0.00"  95%  84%  60°F  58°F  30.02"
Sun 05:00 AM  61.8°F  63°F  calm  calm  none  0.00"  95%  84%  60°F  58°F  30.02"
Sun 04:00 AM  61.6°F  64°F  calm  calm  none  0.00"  97%  82%  61°F  58°F  30.02"
Sun 03:00 AM  61.1°F  64°F  calm  calm  none  0.00"  98%  82%  61°F  58°F  30.00"

  1. Current weather data. No green row appears if the current weather data is also the high or low for the current day.
  2. High temperature for the current day.
  3. Low temperature for the current day.

The French Valley, California weather pages are a service of WeatherCurrents. French Valley is located in southwestern Riverside County, California, north of Temecula, east of Murrieta, and south of Winchester. French Valley is bordered by Lake Skinner.
Copyright ©2022  WeatherCurrents. All rights reserved. - Submit questions and comments - Privacy Policy

This page automatically refreshes every 10 minutes.